Time;durP1;ratioP1;P1;durP2;ratioP2;P2;SDS_P1;SDS_P2;PMS_P1;PMS_P2;Temp;Humidity;BMP_temperature;BMP_pressure;BME280_temperature;BME280_humidity;BME280_pressure;Samples;Min_cycle;Max_cycle;Signal;HPM_P1;HPM_P2
2022/03/23 00:01:17;;;;;;;22.10;13.77;;;8.50;99.90;;;;;;5031642;28;20628;-47
2022/03/23 00:03:43;;;;;;;20.23;12.85;;;8.60;99.90;;;;;;5031643;28;20623;-47
2022/03/23 00:06:09;;;;;;;24.05;13.80;;;8.50;99.90;;;;;;5031687;28;20529;-47
2022/03/23 00:08:34;;;;;;;20.33;10.55;;;8.50;99.90;;;;;;5031636;28;20242;-48
2022/03/23 00:11:01;;;;;;;19.92;11.85;;;8.50;99.90;;;;;;5033722;28;20213;-46
2022/03/23 00:13:27;;;;;;;24.80;12.73;;;8.50;99.90;;;;;;5035489;28;20163;-47
2022/03/23 00:15:54;;;;;;;19.02;12.13;;;8.50;99.90;;;;;;5035619;28;20168;-48
2022/03/23 00:18:19;;;;;;;15.02;10.70;;;8.50;99.90;;;;;;5035275;28;20635;-46
2022/03/23 00:20:45;;;;;;;21.10;11.20;;;8.40;99.90;;;;;;5035283;28;20194;-48
2022/03/23 00:23:11;;;;;;;21.42;14.18;;;8.40;99.90;;;;;;5035244;28;20168;-47
2022/03/23 00:25:37;;;;;;;18.48;11.40;;;8.30;99.90;;;;;;5035502;28;20209;-47
2022/03/23 00:28:03;;;;;;;17.17;11.05;;;8.40;99.90;;;;;;5035175;28;20167;-47
2022/03/23 00:30:30;;;;;;;20.55;12.60;;;8.40;99.90;;;;;;5035276;28;20269;-46
2022/03/23 00:32:55;;;;;;;34.30;18.30;;;8.40;99.90;;;;;;5035073;28;20167;-46
2022/03/23 00:35:22;;;;;;;21.73;11.45;;;8.30;99.90;;;;;;5033996;28;20183;-47
2022/03/23 00:37:48;;;;;;;21.38;13.68;;;8.20;99.90;;;;;;5035285;28;20167;-46
2022/03/23 00:40:14;;;;;;;45.35;22.33;;;8.30;99.90;;;;;;5034918;28;20270;-47
2022/03/23 00:42:40;;;;;;;35.53;18.92;;;8.30;99.90;;;;;;5034893;28;20266;-46
2022/03/23 00:45:06;;;;;;;55.55;26.58;;;8.30;99.90;;;;;;5035154;28;20183;-46
2022/03/23 00:47:32;;;;;;;38.85;17.20;;;8.20;99.90;;;;;;5034588;28;20215;-47
2022/03/23 00:49:57;;;;;;;31.23;16.50;;;8.20;99.90;;;;;;5034636;28;20671;-47
2022/03/23 00:52:23;;;;;;;22.98;12.38;;;8.20;99.90;;;;;;5035034;28;20167;-46
2022/03/23 00:54:48;;;;;;;18.20;11.68;;;8.10;99.90;;;;;;5034777;28;20167;-47
2022/03/23 00:57:14;;;;;;;23.10;11.82;;;8.00;99.90;;;;;;5034651;28;20199;-48
2022/03/23 00:59:39;;;;;;;16.30;11.30;;;7.90;99.90;;;;;;5034556;28;20168;-47
2022/03/23 01:02:09;;;;;;;17.92;11.63;;;8.00;99.90;;;;;;5034507;28;20639;-47
2022/03/23 01:04:35;;;;;;;23.02;11.93;;;7.90;99.90;;;;;;5034499;28;20532;-47
2022/03/23 01:07:00;;;;;;;22.23;12.30;;;8.00;99.90;;;;;;5034678;28;20171;-46
2022/03/23 01:09:26;;;;;;;24.40;13.68;;;7.90;99.90;;;;;;5034297;28;20264;-47
2022/03/23 01:11:52;;;;;;;18.48;11.88;;;7.80;99.90;;;;;;5034703;28;20653;-46
2022/03/23 01:14:19;;;;;;;19.58;11.65;;;7.90;99.90;;;;;;5034316;28;20176;-48
2022/03/23 01:16:45;;;;;;;19.50;11.77;;;7.70;99.90;;;;;;5033124;28;20159;-48
2022/03/23 01:19:11;;;;;;;18.65;11.85;;;7.70;99.90;;;;;;5034234;28;20163;-47
2022/03/23 01:21:37;;;;;;;23.83;13.25;;;7.60;99.90;;;;;;5033304;28;20184;-48
2022/03/23 01:24:06;;;;;;;29.92;13.43;;;7.60;99.90;;;;;;5034251;28;20170;-47
2022/03/23 01:26:32;;;;;;;20.67;12.25;;;7.60;99.90;;;;;;5034110;28;20175;-47
2022/03/23 01:28:58;;;;;;;19.45;12.52;;;7.70;99.90;;;;;;5033914;28;20251;-47
2022/03/23 01:31:23;;;;;;;20.50;12.13;;;7.70;99.90;;;;;;5034450;28;20318;-46
2022/03/23 01:33:49;;;;;;;23.77;13.95;;;7.80;99.90;;;;;;5034088;28;20179;-46
2022/03/23 01:36:15;;;;;;;22.77;12.57;;;7.80;99.90;;;;;;5034033;28;20598;-46
2022/03/23 01:38:41;;;;;;;19.95;12.30;;;7.80;99.90;;;;;;5034181;28;20175;-46
2022/03/23 01:41:06;;;;;;;22.23;12.07;;;7.70;99.90;;;;;;5033903;28;20217;-47
2022/03/23 01:43:33;;;;;;;16.77;10.95;;;7.60;99.90;;;;;;5033840;28;20254;-47
2022/03/23 01:46:00;;;;;;;16.88;11.73;;;7.60;99.90;;;;;;5033789;28;20310;-49
2022/03/23 01:48:25;;;;;;;20.20;12.43;;;7.60;99.90;;;;;;5033973;28;20179;-46
2022/03/23 01:50:51;;;;;;;21.60;12.52;;;7.60;99.90;;;;;;5033762;28;20625;-48
2022/03/23 01:53:17;;;;;;;18.95;11.65;;;7.60;99.90;;;;;;5033594;28;20246;-48
2022/03/23 01:55:42;;;;;;;20.08;13.43;;;7.50;99.90;;;;;;5033544;28;20254;-48
2022/03/23 01:58:08;;;;;;;19.70;12.15;;;7.30;99.90;;;;;;5033073;28;20167;-48
2022/03/23 02:00:35;;;;;;;18.83;11.20;;;7.30;99.90;;;;;;5033368;28;20647;-48
2022/03/23 02:03:00;;;;;;;28.67;15.15;;;7.30;99.90;;;;;;5033376;28;20217;-48
2022/03/23 02:05:26;;;;;;;22.30;13.20;;;7.30;99.90;;;;;;5032961;28;20566;-47
2022/03/23 02:07:52;;;;;;;27.58;14.93;;;7.30;99.90;;;;;;5033722;28;20560;-48
2022/03/23 02:10:17;;;;;;;25.17;14.45;;;7.30;99.90;;;;;;5031895;28;20203;-48
2022/03/23 02:12:43;;;;;;;21.55;12.85;;;7.40;99.90;;;;;;5033233;28;20619;-48
2022/03/23 02:15:15;;;;;;;23.00;14.02;;;7.40;99.90;;;;;;5033432;28;20536;-48
2022/03/23 02:17:42;;;;;;;26.48;13.40;;;7.40;99.90;;;;;;5033340;28;20172;-48
2022/03/23 02:20:08;;;;;;;26.98;13.57;;;7.40;99.90;;;;;;5033296;28;20198;-49
2022/03/23 02:22:34;;;;;;;19.40;12.13;;;7.50;99.90;;;;;;5033256;28;20175;-48
2022/03/23 02:25:00;;;;;;;20.80;11.80;;;7.50;99.90;;;;;;5033082;28;20262;-48
2022/03/23 02:27:26;;;;;;;18.80;12.27;;;7.20;99.90;;;;;;5032889;28;20190;-46
2022/03/23 02:29:57;;;;;;;17.98;11.05;;;7.30;99.90;;;;;;5033118;28;20207;-47
2022/03/23 02:32:24;;;;;;;17.17;11.57;;;7.20;99.90;;;;;;5033383;28;20175;-47
2022/03/23 02:34:49;;;;;;;17.50;11.93;;;7.20;99.90;;;;;;5032774;28;20195;-47
2022/03/23 02:37:16;;;;;;;20.27;11.90;;;7.20;99.90;;;;;;5032763;28;20206;-47
2022/03/23 02:39:42;;;;;;;17.58;11.20;;;7.00;99.90;;;;;;5032644;28;20674;-46
2022/03/23 02:42:08;;;;;;;17.63;11.30;;;6.90;99.90;;;;;;5032636;28;20171;-47
2022/03/23 02:44:34;;;;;;;21.08;12.15;;;7.00;99.90;;;;;;5032932;28;20182;-47
2022/03/23 02:47:01;;;;;;;21.70;12.88;;;7.00;99.90;;;;;;5032403;28;20264;-47
2022/03/23 02:49:26;;;;;;;16.65;11.20;;;7.10;99.90;;;;;;5032715;28;20302;-46
2022/03/23 02:51:52;;;;;;;20.85;12.93;;;7.10;99.90;;;;;;5032857;28;20203;-46
2022/03/23 03:03:03;;;;;;;21.15;12.93;;;6.90;99.90;;;;;;5032376;28;20201;-47
2022/03/23 03:05:29;;;;;;;20.13;14.00;;;7.00;99.90;;;;;;5032268;28;20175;-47
2022/03/23 03:10:38;;;;;;;20.23;13.20;;;7.00;99.90;;;;;;5032158;28;20257;-46
2022/03/23 03:13:04;;;;;;;19.20;12.45;;;7.00;99.90;;;;;;5032193;28;20635;-46
2022/03/23 03:15:30;;;;;;;16.23;11.30;;;7.00;99.90;;;;;;5032163;28;20191;-46
2022/03/23 03:17:57;;;;;;;19.17;12.48;;;7.00;99.90;;;;;;5032101;28;20162;-46
2022/03/23 03:20:23;;;;;;;21.50;13.25;;;7.00;99.90;;;;;;5032443;28;20173;-46
2022/03/23 03:22:49;;;;;;;21.27;12.85;;;6.90;99.90;;;;;;5032021;28;20250;-46
2022/03/23 03:25:16;;;;;;;20.60;13.00;;;6.70;99.90;;;;;;5032142;28;20665;-46
2022/03/23 03:27:44;;;;;;;20.92;13.07;;;6.70;99.90;;;;;;5032077;28;20631;-47
2022/03/23 03:30:14;;;;;;;22.88;13.70;;;6.80;99.90;;;;;;5031910;28;20203;-47
2022/03/23 03:32:40;;;;;;;19.42;12.52;;;6.80;99.90;;;;;;5032029;28;20163;-46
2022/03/23 03:35:06;;;;;;;20.83;13.13;;;6.70;99.90;;;;;;5032003;28;20171;-47
2022/03/23 03:37:32;;;;;;;24.70;13.10;;;6.80;99.90;;;;;;5031970;28;20160;-46
2022/03/23 03:39:57;;;;;;;25.45;12.02;;;6.70;99.90;;;;;;5031870;28;20186;-47
2022/03/23 03:42:23;;;;;;;18.33;11.38;;;6.70;99.90;;;;;;5032166;28;20250;-46
2022/03/23 03:44:50;;;;;;;17.27;11.57;;;6.60;99.90;;;;;;5032173;28;20171;-46
2022/03/23 03:47:16;;;;;;;19.98;12.73;;;6.70;99.90;;;;;;5035785;28;20265;-47
2022/03/23 03:49:42;;;;;;;21.55;12.60;;;6.60;99.90;;;;;;5035813;28;20226;-46
2022/03/23 03:52:08;;;;;;;21.75;12.88;;;6.50;99.90;;;;;;5035873;28;20541;-46
2022/03/23 03:54:33;;;;;;;18.90;11.50;;;6.60;99.90;;;;;;5035758;28;20526;-46
2022/03/23 03:56:59;;;;;;;19.42;11.98;;;6.30;99.90;;;;;;5035976;28;20171;-46
2022/03/23 03:59:24;;;;;;;17.30;12.25;;;6.40;99.90;;;;;;5036228;28;20191;-46
2022/03/23 04:01:50;;;;;;;21.10;12.05;;;6.20;99.90;;;;;;5035874;28;20539;-46
2022/03/23 04:04:16;;;;;;;18.75;11.85;;;6.30;99.90;;;;;;5035661;28;20176;-46
2022/03/23 04:06:42;;;;;;;18.75;12.95;;;6.40;99.90;;;;;;5035557;28;20171;-46
2022/03/23 04:09:07;;;;;;;19.35;12.40;;;6.30;99.90;;;;;;5035412;28;20179;-46
2022/03/23 04:11:33;;;;;;;20.42;11.70;;;6.30;99.90;;;;;;5034216;28;20179;-46
2022/03/23 04:13:58;;;;;;;17.00;10.68;;;6.30;99.90;;;;;;5035585;28;20246;-47
2022/03/23 04:16:24;;;;;;;16.77;11.65;;;6.30;99.90;;;;;;5035895;28;20209;-46
2022/03/23 04:18:50;;;;;;;21.83;12.82;;;6.20;99.90;;;;;;5035349;28;20163;-47
2022/03/23 04:21:15;;;;;;;19.42;12.25;;;6.20;99.90;;;;;;5035298;28;20631;-46
2022/03/23 04:23:41;;;;;;;20.33;12.13;;;6.30;99.90;;;;;;5035498;28;20185;-47
2022/03/23 04:26:06;;;;;;;17.55;11.85;;;6.30;99.90;;;;;;5035453;28;20167;-46
2022/03/23 04:28:32;;;;;;;18.95;12.45;;;6.20;99.90;;;;;;5035255;28;20205;-47
2022/03/23 04:30:58;;;;;;;19.52;12.85;;;6.20;99.90;;;;;;5035016;28;20570;-46
2022/03/23 04:33:24;;;;;;;16.55;12.05;;;6.30;99.90;;;;;;5035332;28;20173;-46
2022/03/23 04:35:49;;;;;;;16.88;11.60;;;6.30;99.90;;;;;;5035079;28;20639;-46
2022/03/23 04:38:15;;;;;;;20.30;12.77;;;6.20;99.90;;;;;;5033795;28;20174;-46
2022/03/23 04:40:41;;;;;;;21.02;12.70;;;6.20;99.90;;;;;;5034882;28;20513;-46
2022/03/23 04:43:07;;;;;;;17.00;12.40;;;6.10;99.90;;;;;;5034902;28;20160;-47
2022/03/23 04:45:32;;;;;;;24.48;14.30;;;6.20;99.90;;;;;;5034740;28;20167;-46
2022/03/23 04:47:58;;;;;;;24.88;13.32;;;6.20;99.90;;;;;;5034879;28;20182;-48
2022/03/23 04:50:23;;;;;;;24.13;13.32;;;6.10;99.90;;;;;;5035034;28;20207;-47
2022/03/23 04:52:52;;;;;;;22.33;13.50;;;6.20;99.90;;;;;;5034687;28;20164;-47
2022/03/23 04:55:17;;;;;;;17.52;11.60;;;6.20;99.90;;;;;;5034955;28;20171;-47
2022/03/23 04:57:43;;;;;;;22.95;11.90;;;6.10;99.90;;;;;;5034420;28;20159;-48
2022/03/23 05:00:13;;;;;;;21.35;12.10;;;6.10;99.90;;;;;;5034618;28;20247;-48
2022/03/23 05:02:38;;;;;;;24.48;12.07;;;6.00;99.90;;;;;;5034482;28;20173;-48
2022/03/23 05:05:08;;;;;;;23.13;13.15;;;6.00;99.90;;;;;;5034567;28;20176;-47
2022/03/23 05:07:35;;;;;;;22.73;11.52;;;6.00;99.90;;;;;;5034712;28;20160;-47
2022/03/23 05:10:02;;;;;;;17.77;11.48;;;5.90;99.90;;;;;;5034558;28;20207;-47
2022/03/23 05:12:28;;;;;;;14.60;10.40;;;5.80;99.90;;;;;;5034537;28;20175;-47
2022/03/23 05:14:53;;;;;;;18.38;12.30;;;5.70;99.90;;;;;;5034618;28;20170;-48
2022/03/23 05:17:19;;;;;;;16.10;11.05;;;5.60;99.90;;;;;;5034296;28;20745;-49
2022/03/23 05:19:45;;;;;;;16.77;11.85;;;5.60;99.90;;;;;;5032917;28;20575;-48
2022/03/23 05:22:11;;;;;;;21.27;11.70;;;5.40;99.90;;;;;;5032873;28;20538;-48
2022/03/23 05:24:38;;;;;;;16.55;10.73;;;5.40;99.90;;;;;;5034375;28;20164;-48
2022/03/23 05:27:03;;;;;;;16.05;11.13;;;5.50;99.90;;;;;;5034349;28;20212;-48
2022/03/23 05:29:29;;;;;;;19.45;10.77;;;5.40;99.90;;;;;;5033964;28;20588;-48
2022/03/23 05:31:55;;;;;;;21.60;12.02;;;5.30;99.90;;;;;;5034300;28;20513;-48
2022/03/23 05:34:20;;;;;;;23.02;12.60;;;5.50;99.90;;;;;;5034200;28;20658;-48
2022/03/23 05:36:46;;;;;;;23.90;12.95;;;5.40;99.90;;;;;;5033955;28;20543;-49
2022/03/23 05:39:12;;;;;;;19.58;12.90;;;5.50;99.90;;;;;;5033813;28;20185;-47
2022/03/23 05:41:38;;;;;;;21.58;12.32;;;5.40;99.90;;;;;;5034060;28;20636;-47
2022/03/23 05:44:04;;;;;;;22.73;12.40;;;5.60;99.90;;;;;;5033861;28;20246;-48
2022/03/23 05:46:30;;;;;;;20.20;11.98;;;5.60;99.90;;;;;;5033520;28;20218;-48
2022/03/23 05:48:56;;;;;;;22.25;12.88;;;5.40;99.90;;;;;;5033568;28;20194;-47
2022/03/23 05:51:21;;;;;;;20.50;11.50;;;5.40;99.90;;;;;;5033929;28;20182;-47
2022/03/23 05:53:47;;;;;;;21.55;12.02;;;5.40;99.90;;;;;;5033605;28;20592;-48
2022/03/23 05:56:12;;;;;;;20.48;12.68;;;5.50;99.90;;;;;;5031971;28;20182;-48
2022/03/23 05:58:38;;;;;;;20.50;12.07;;;5.60;99.90;;;;;;5033524;28;20210;-49
2022/03/23 06:01:04;;;;;;;23.58;12.48;;;5.60;99.90;;;;;;5033474;28;20179;-48
2022/03/23 06:03:31;;;;;;;21.52;13.10;;;5.70;99.90;;;;;;5033675;28;20163;-48
2022/03/23 06:05:56;;;;;;;19.90;11.38;;;5.70;99.90;;;;;;5033535;28;20186;-47
2022/03/23 06:08:22;;;;;;;20.15;12.20;;;5.70;99.90;;;;;;5033025;28;20163;-48
2022/03/23 06:10:47;;;;;;;19.30;11.43;;;5.70;99.90;;;;;;5033138;28;20199;-48
2022/03/23 06:13:14;;;;;;;21.27;13.65;;;5.70;99.90;;;;;;5033077;28;20171;-48
2022/03/23 06:15:39;;;;;;;18.88;12.50;;;5.70;99.90;;;;;;5033321;28;20225;-48
2022/03/23 06:18:05;;;;;;;25.05;13.40;;;5.70;99.90;;;;;;5033172;28;20659;-48
2022/03/23 06:20:30;;;;;;;25.83;13.68;;;5.80;99.90;;;;;;5032984;28;20251;-48
2022/03/23 06:22:56;;;;;;;23.45;13.68;;;5.90;99.90;;;;;;5032941;28;20198;-46
2022/03/23 06:25:24;;;;;;;23.40;13.55;;;6.00;99.90;;;;;;5033212;28;20221;-48
2022/03/23 06:27:50;;;;;;;20.70;13.45;;;6.10;99.90;;;;;;5033084;28;20220;-48
2022/03/23 06:30:15;;;;;;;19.45;13.73;;;6.00;99.90;;;;;;5032777;28;20210;-48
2022/03/23 06:32:41;;;;;;;18.67;11.98;;;6.10;99.90;;;;;;5032619;28;20175;-48
2022/03/23 06:35:07;;;;;;;18.08;11.65;;;6.10;99.90;;;;;;5032440;28;20175;-48
2022/03/23 06:37:32;;;;;;;19.00;12.25;;;6.10;99.90;;;;;;5032258;28;20167;-48
2022/03/23 06:39:58;;;;;;;18.95;12.85;;;6.10;99.90;;;;;;5032228;28;20182;-48
2022/03/23 06:42:25;;;;;;;19.27;12.48;;;6.20;99.90;;;;;;5032402;28;20172;-48
2022/03/23 06:44:51;;;;;;;18.95;12.48;;;6.40;99.90;;;;;;5032587;28;20179;-48
2022/03/23 06:47:16;;;;;;;19.20;12.35;;;6.40;99.90;;;;;;5031851;28;20218;-48
2022/03/23 06:49:42;;;;;;;25.23;14.68;;;6.40;99.90;;;;;;5032051;28;20237;-48
2022/03/23 06:52:07;;;;;;;27.63;14.00;;;6.50;99.90;;;;;;5032338;28;20182;-48
2022/03/23 06:54:33;;;;;;;31.80;15.80;;;6.70;99.90;;;;;;5032271;28;20262;-46
2022/03/23 06:56:59;;;;;;;22.42;13.75;;;6.90;99.90;;;;;;5032282;28;20228;-47
2022/03/23 06:59:24;;;;;;;33.92;16.83;;;6.90;99.90;;;;;;5032509;28;20171;-46
2022/03/23 07:01:50;;;;;;;42.92;18.52;;;7.10;99.90;;;;;;5032826;28;20171;-47
2022/03/23 07:04:16;;;;;;;30.73;16.45;;;7.30;99.90;;;;;;5032044;28;20171;-47
2022/03/23 07:06:41;;;;;;;30.88;15.93;;;7.30;99.90;;;;;;5032571;28;20174;-47
2022/03/23 07:11:52;;;;;;;36.05;15.25;;;7.60;99.90;;;;;;5032496;28;20190;-47
2022/03/23 07:14:18;;;;;;;47.63;18.38;;;7.80;99.90;;;;;;5032209;28;20623;-47
2022/03/23 07:16:44;;;;;;;35.70;17.77;;;7.90;99.90;;;;;;5032078;28;20171;-47
2022/03/23 07:19:10;;;;;;;34.92;16.80;;;8.00;99.90;;;;;;5031731;28;20229;-47
2022/03/23 07:21:35;;;;;;;25.92;15.18;;;8.10;99.90;;;;;;5031602;28;20639;-49
2022/03/23 07:24:02;;;;;;;22.77;14.35;;;8.20;99.90;;;;;;5032366;28;20171;-48
2022/03/23 07:26:28;;;;;;;47.72;19.02;;;8.20;99.90;;;;;;5031903;28;20217;-47
2022/03/23 07:28:53;;;;;;;26.83;15.20;;;8.30;99.90;;;;;;5032233;28;20573;-48
2022/03/23 07:31:19;;;;;;;22.23;16.30;;;8.50;99.90;;;;;;5031729;28;20207;-48
2022/03/23 07:33:44;;;;;;;27.88;16.75;;;8.70;99.90;;;;;;5031938;28;20171;-48
2022/03/23 07:36:13;;;;;;;25.50;15.80;;;8.60;99.90;;;;;;5031880;28;20184;-48
2022/03/23 07:38:40;;;;;;;28.23;17.25;;;8.70;99.90;;;;;;5031931;28;20221;-47
2022/03/23 07:41:06;;;;;;;32.42;17.38;;;8.80;99.90;;;;;;5031988;28;20208;-48
2022/03/23 07:43:31;;;;;;;28.52;16.40;;;9.00;99.90;;;;;;5031700;28;20281;-48
2022/03/23 07:45:57;;;;;;;27.38;17.30;;;9.20;99.90;;;;;;5031661;28;20219;-48
2022/03/23 07:48:23;;;;;;;28.88;16.48;;;9.30;99.90;;;;;;5031798;28;20206;-47
2022/03/23 07:50:52;;;;;;;28.25;17.02;;;9.40;99.90;;;;;;5031482;28;20697;-47
2022/03/23 07:53:19;;;;;;;24.42;15.85;;;9.50;99.90;;;;;;5031781;28;20175;-47
2022/03/23 07:55:45;;;;;;;24.13;17.10;;;9.60;99.90;;;;;;5031701;28;20198;-48
2022/03/23 07:58:11;;;;;;;30.23;18.95;;;9.80;99.90;;;;;;5031690;28;20632;-47
2022/03/23 08:00:38;;;;;;;31.10;17.02;;;9.90;99.90;;;;;;5031435;28;20723;-47
2022/03/23 08:03:04;;;;;;;23.30;17.10;;;10.00;99.90;;;;;;5031957;28;20226;-47
2022/03/23 08:05:30;;;;;;;24.45;16.67;;;10.10;99.90;;;;;;5031706;28;20244;-47
2022/03/23 08:07:56;;;;;;;21.33;15.10;;;10.20;99.90;;;;;;5031884;28;20183;-47
2022/03/23 08:10:21;;;;;;;26.15;17.02;;;10.50;99.90;;;;;;5032049;28;20257;-47
2022/03/23 08:12:47;;;;;;;25.05;17.23;;;10.50;99.90;;;;;;5031811;28;20168;-47
2022/03/23 08:15:13;;;;;;;26.35;16.00;;;10.70;99.90;;;;;;5031487;28;20689;-47
2022/03/23 08:17:38;;;;;;;24.33;16.83;;;10.80;99.90;;;;;;5031352;28;20186;-47
2022/03/23 08:22:58;;;;;;;24.48;16.08;;;11.00;99.90;;;;;;5031462;28;20171;-47
2022/03/23 08:25:24;;;;;;;24.10;15.48;;;11.10;99.90;;;;;;5031792;28;20167;-47
2022/03/23 08:27:50;;;;;;;26.90;17.42;;;11.20;99.90;;;;;;5031772;28;20167;-49
2022/03/23 08:30:15;;;;;;;28.27;15.07;;;11.30;99.90;;;;;;5031392;28;20250;-48
2022/03/23 08:32:41;;;;;;;24.42;16.10;;;11.50;99.90;;;;;;5034530;28;20167;-48
2022/03/23 08:35:07;;;;;;;20.38;15.13;;;11.60;99.90;;;;;;5035003;28;20586;-48
2022/03/23 08:37:32;;;;;;;26.08;16.65;;;11.70;99.90;;;;;;5035006;28;20623;-48
2022/03/23 08:39:59;;;;;;;22.65;15.75;;;11.90;99.90;;;;;;5035296;28;20174;-48
2022/03/23 08:42:24;;;;;;;25.08;15.95;;;11.90;99.90;;;;;;5035234;28;20175;-48
2022/03/23 08:44:50;;;;;;;24.38;16.35;;;12.00;99.90;;;;;;5035436;28;20172;-48
2022/03/23 08:47:17;;;;;;;26.80;17.88;;;12.00;99.90;;;;;;5034684;28;20215;-48
2022/03/23 08:49:43;;;;;;;28.48;17.45;;;12.20;99.90;;;;;;5034992;28;20210;-48
2022/03/23 08:52:09;;;;;;;23.00;17.55;;;12.20;99.90;;;;;;5034731;28;20261;-48
2022/03/23 08:54:34;;;;;;;29.75;19.17;;;12.10;99.90;;;;;;5034786;28;20195;-48
2022/03/23 08:57:00;;;;;;;23.08;17.98;;;12.30;99.90;;;;;;5034970;28;20175;-51
2022/03/23 08:59:25;;;;;;;24.40;18.13;;;12.40;99.90;;;;;;5034855;28;20697;-48
2022/03/23 09:01:51;;;;;;;28.13;17.15;;;12.50;99.90;;;;;;5034933;28;20163;-48
2022/03/23 09:04:17;;;;;;;26.45;17.63;;;12.70;99.90;;;;;;5034744;28;20206;-48
2022/03/23 09:06:43;;;;;;;26.85;18.33;;;12.70;99.90;;;;;;5034403;28;20254;-49
2022/03/23 09:09:08;;;;;;;24.15;17.10;;;12.90;99.90;;;;;;5034594;28;20198;-48
2022/03/23 09:11:34;;;;;;;25.52;17.88;;;12.70;99.90;;;;;;5034466;28;20179;-49
2022/03/23 09:13:59;;;;;;;26.20;18.38;;;12.80;99.90;;;;;;5034230;28;20175;-49
2022/03/23 09:16:25;;;;;;;23.92;17.90;;;12.90;99.90;;;;;;5034573;28;20167;-47
2022/03/23 09:18:51;;;;;;;25.35;18.80;;;13.10;99.90;;;;;;5034684;28;20236;-49
2022/03/23 09:21:17;;;;;;;28.35;18.38;;;13.20;99.90;;;;;;5034227;28;20172;-48
2022/03/23 09:23:43;;;;;;;24.42;19.15;;;13.40;99.90;;;;;;5034217;28;20698;-49
2022/03/23 09:26:10;;;;;;;27.58;18.60;;;13.40;99.90;;;;;;5034334;28;20175;-49
2022/03/23 09:28:36;;;;;;;28.75;18.02;;;13.40;99.90;;;;;;5034287;28;20206;-49
2022/03/23 09:31:01;;;;;;;23.30;17.77;;;13.50;99.90;;;;;;5034221;28;20690;-49
2022/03/23 09:33:28;;;;;;;23.65;17.10;;;13.60;99.90;;;;;;5034306;28;20163;-49
2022/03/23 09:35:53;;;;;;;27.83;18.77;;;13.70;99.90;;;;;;5033290;28;20182;-48
2022/03/23 09:38:19;;;;;;;25.65;18.30;;;13.80;99.90;;;;;;5033887;28;20171;-49
2022/03/23 09:40:49;;;;;;;25.02;18.33;;;13.90;99.90;;;;;;5033814;28;20172;-49
2022/03/23 09:43:19;;;;;;;25.17;18.60;;;14.10;99.90;;;;;;5033106;28;20174;-49
2022/03/23 09:48:11;;;;;;;29.67;18.65;;;14.20;99.90;;;;;;5034075;28;20203;-48
2022/03/23 09:50:39;;;;;;;27.80;19.00;;;14.40;99.90;;;;;;5033890;28;20294;-48
2022/03/23 09:53:05;;;;;;;27.25;18.67;;;14.30;99.90;;;;;;5033581;28;20167;-49
2022/03/23 09:55:31;;;;;;;27.65;18.38;;;14.50;99.90;;;;;;5033569;28;20217;-49
2022/03/23 09:57:59;;;;;;;26.98;19.08;;;14.70;99.90;;;;;;5033360;28;20167;-47
2022/03/23 10:00:29;;;;;;;25.75;17.63;;;14.70;99.90;;;;;;5033199;28;20164;-48
2022/03/23 10:02:57;;;;;;;25.80;19.40;;;14.70;99.90;;;;;;5033943;28;20172;-47
2022/03/23 10:05:50;;;;;;;24.52;18.30;;;14.80;99.90;;;;;;5033708;28;20631;-49
2022/03/23 10:08:59;;;;;;;26.17;19.05;;;15.00;99.90;;;;;;5033335;28;20627;-48
2022/03/23 10:12:02;;;;;;;27.63;19.30;;;14.90;99.90;;;;;;5033729;28;20218;-48
2022/03/23 10:15:05;;;;;;;25.98;18.88;;;15.20;99.90;;;;;;5033287;28;20178;-48
2022/03/23 10:18:08;;;;;;;31.90;22.63;;;15.20;99.90;;;;;;5033368;28;20167;-48
2022/03/23 10:20:33;;;;;;;33.80;23.85;;;15.20;99.90;;;;;;5033127;28;20193;-47
2022/03/23 10:22:59;;;;;;;25.75;19.63;;;15.40;99.90;;;;;;5033054;28;20682;-48
2022/03/23 10:25:28;;;;;;;27.95;19.30;;;15.40;99.90;;;;;;5033364;28;20241;-48
2022/03/23 10:27:58;;;;;;;32.65;22.40;;;15.50;99.90;;;;;;5033222;28;20163;-48
2022/03/23 10:30:34;;;;;;;28.45;21.00;;;15.60;99.90;;;;;;5033166;28;20218;-48
2022/03/23 10:32:59;;;;;;;31.27;21.20;;;15.80;99.90;;;;;;5032918;28;20170;-48
2022/03/23 10:35:36;;;;;;;28.33;20.73;;;15.80;99.90;;;;;;5033132;28;20167;-48
2022/03/23 10:38:16;;;;;;;38.50;27.80;;;15.70;99.90;;;;;;5032378;28;20512;-49
2022/03/23 10:40:44;;;;;;;27.95;19.35;;;15.90;99.20;;;;;;5032775;28;20169;-48
2022/03/23 10:43:13;;;;;;;29.00;19.55;;;15.90;97.40;;;;;;5032853;28;20175;-48
2022/03/23 10:45:38;;;;;;;24.25;19.40;;;15.90;96.30;;;;;;5032436;28;20202;-48
2022/03/23 10:48:13;;;;;;;29.38;20.38;;;16.00;95.30;;;;;;5032627;28;20591;-49
2022/03/23 10:50:54;;;;;;;25.88;18.95;;;16.10;96.80;;;;;;5032677;28;20216;-48
2022/03/23 10:53:37;;;;;;;25.48;20.23;;;16.20;94.10;;;;;;5032619;28;20499;-48
2022/03/23 10:56:04;;;;;;;29.05;20.70;;;16.40;95.50;;;;;;5032054;28;20181;-49
2022/03/23 10:58:29;;;;;;;32.92;20.60;;;16.50;95.50;;;;;;5032393;28;20164;-49
2022/03/23 11:00:57;;;;;;;33.00;20.27;;;16.60;95.70;;;;;;5032423;28;20540;-48
2022/03/23 11:03:43;;;;;;;33.33;21.35;;;16.60;95.70;;;;;;5032427;28;20619;-48
2022/03/23 11:06:13;;;;;;;23.08;19.77;;;16.70;96.20;;;;;;5032521;28;20175;-48
2022/03/23 11:08:39;;;;;;;31.08;20.17;;;16.90;94.90;;;;;;5032273;28;20661;-48
2022/03/23 11:15:46;;;;;;;23.42;17.92;;;17.00;90.20;;;;;;5032128;28;20266;-48
2022/03/23 11:16:45;;;;;;;31.70;19.60;;;17.00;85.10;;;;;;5031483;28;20183;-49
2022/03/23 11:19:11;;;;;;;29.52;19.33;;;17.20;90.20;;;;;;5031656;28;20568;-48
2022/03/23 11:21:59;;;;;;;30.10;19.48;;;17.30;84.90;;;;;;5031621;28;20194;-48
2022/03/23 11:24:26;;;;;;;25.17;19.60;;;17.20;80.40;;;;;;5031878;28;20392;-48
2022/03/23 11:26:53;;;;;;;24.75;18.55;;;17.30;84.60;;;;;;5031768;28;20229;-49
2022/03/23 11:29:19;;;;;;;26.13;19.02;;;17.40;81.10;;;;;;5031231;28;20247;-48
2022/03/23 11:31:46;;;;;;;26.55;19.20;;;17.40;82.50;;;;;;5031256;28;20723;-48
2022/03/23 11:34:13;;;;;;;27.45;19.17;;;17.30;77.00;;;;;;5031526;28;20171;-48
2022/03/23 11:36:40;;;;;;;30.30;19.23;;;17.40;80.10;;;;;;5031248;28;20159;-48
2022/03/23 11:39:05;;;;;;;27.80;19.08;;;17.70;79.50;;;;;;5030885;28;20516;-49
2022/03/23 11:41:33;;;;;;;27.77;17.90;;;17.80;77.60;;;;;;5031742;28;20195;-48
2022/03/23 11:43:59;;;;;;;24.15;18.45;;;17.80;76.60;;;;;;5031823;28;20221;-48
2022/03/23 11:46:26;;;;;;;27.02;18.20;;;17.70;72.80;;;;;;5031917;28;20302;-48
2022/03/23 11:48:54;;;;;;;29.52;20.00;;;17.70;72.50;;;;;;5031957;28;20725;-48
2022/03/23 11:51:38;;;;;;;25.25;19.80;;;17.80;73.30;;;;;;5031761;28;20297;-48
2022/03/23 11:57:21;;;;;;;24.13;18.45;;;18.00;73.00;;;;;;5031167;28;20190;-48
2022/03/23 11:59:47;;;;;;;24.98;19.73;;;18.00;74.20;;;;;;5031646;28;20179;-48
2022/03/23 12:02:18;;;;;;;27.48;19.67;;;18.00;75.20;;;;;;5031500;28;20274;-47
2022/03/23 12:04:44;;;;;;;29.00;20.38;;;18.10;76.30;;;;;;5031652;28;20195;-49
2022/03/23 12:07:11;;;;;;;27.30;18.92;;;18.20;76.20;;;;;;5034122;28;20619;-48
2022/03/23 12:09:44;;;;;;;24.90;19.02;;;18.10;74.30;;;;;;5034779;28;20286;-49
2022/03/23 12:12:10;;;;;;;27.60;19.38;;;18.10;74.80;;;;;;5035570;28;20172;-48
2022/03/23 12:14:38;;;;;;;32.95;20.17;;;18.20;75.10;;;;;;5035050;28;20262;-48
2022/03/23 12:17:16;;;;;;;29.00;19.40;;;18.20;74.60;;;;;;5035126;28;20232;-47
2022/03/23 12:19:54;;;;;;;26.17;20.25;;;18.10;72.10;;;;;;5035383;28;20212;-48
2022/03/23 12:22:32;;;;;;;28.85;20.98;;;18.00;73.40;;;;;;5035144;28;20154;-48
2022/03/23 12:25:22;;;;;;;30.98;21.83;;;18.20;73.80;;;;;;5034670;28;20540;-48
2022/03/23 12:28:25;;;;;;;29.05;20.40;;;18.30;74.40;;;;;;5034737;28;20167;-47
2022/03/23 12:30:56;;;;;;;30.30;23.15;;;18.30;72.70;;;;;;5034955;28;20228;-48
2022/03/23 12:33:24;;;;;;;29.50;20.23;;;18.40;74.40;;;;;;5033900;28;20199;-48
2022/03/23 12:35:50;;;;;;;29.38;21.48;;;18.50;74.40;;;;;;5034734;28;20182;-48
2022/03/23 12:38:18;;;;;;;31.23;21.25;;;18.50;75.20;;;;;;5034795;28;20162;-49
2022/03/23 12:40:45;;;;;;;28.08;20.08;;;18.60;73.80;;;;;;5034633;28;20699;-48
2022/03/23 12:43:37;;;;;;;28.30;20.90;;;18.50;73.70;;;;;;5034617;28;20651;-48
2022/03/23 12:46:05;;;;;;;31.33;21.13;;;18.50;72.20;;;;;;5033234;28;20273;-48
2022/03/23 12:59:49;;;;;;;21.38;15.20;;;18.70;69.60;;;;;;5034858;28;20182;-48
2022/03/23 13:02:18;;;;;;;16.05;12.57;;;18.60;61.90;;;;;;5034500;28;20168;-48
2022/03/23 13:04:43;;;;;;;17.08;13.43;;;18.70;61.50;;;;;;5034534;28;20178;-48
2022/03/23 13:07:27;;;;;;;15.80;10.73;;;18.80;62.80;;;;;;5034405;28;20160;-48
2022/03/23 13:10:09;;;;;;;16.08;11.80;;;18.70;58.90;;;;;;5034835;28;20537;-47
2022/03/23 13:12:36;;;;;;;14.30;11.80;;;18.70;57.10;;;;;;5034381;28;20252;-47